createdAt,value
2023-10-26T00:00:37.238Z,98996.94
2023-10-26T00:03:03.873Z,98997.72
2023-10-26T00:05:30.513Z,98999.38
2023-10-26T00:07:56.931Z,99012.69
2023-10-26T00:10:23.290Z,98999.56
2023-10-26T00:12:49.746Z,99007.81
2023-10-26T00:15:16.138Z,99012.16
2023-10-26T00:17:42.613Z,99008.63
2023-10-26T00:20:09.801Z,99018.91
2023-10-26T00:22:36.182Z,99027.88
2023-10-26T00:25:02.532Z,99028.56
2023-10-26T00:27:28.985Z,99029.16
2023-10-26T00:29:55.439Z,99035.63
2023-10-26T00:32:21.805Z,99038.88
2023-10-26T00:34:48.475Z,99036.66
2023-10-26T00:37:14.933Z,99039.38
2023-10-26T00:39:41.318Z,99045.91
2023-10-26T00:42:07.873Z,99045.91
2023-10-26T00:44:34.433Z,99054.16
2023-10-26T00:47:01.445Z,99064.00
2023-10-26T00:49:27.845Z,99065.63
2023-10-26T00:51:59.795Z,99067.22
2023-10-26T00:54:27.646Z,99074.31
2023-10-26T00:56:56.078Z,99072.91
2023-10-26T00:59:24.819Z,99084.59
2023-10-26T01:01:51.805Z,99073.22
2023-10-26T01:04:18.281Z,99073.22
2023-10-26T01:06:45.373Z,99079.16
2023-10-26T01:09:12.217Z,99086.50
2023-10-26T01:11:39.120Z,99084.59
2023-10-26T01:14:07.057Z,99086.19
2023-10-26T01:16:33.763Z,99089.00
2023-10-26T01:19:01.501Z,99087.91
2023-10-26T01:21:29.325Z,99093.63
2023-10-26T01:23:56.586Z,99099.28
2023-10-26T01:26:23.467Z,99093.94
2023-10-26T01:28:50.047Z,99106.44
2023-10-26T01:31:17.995Z,99104.50
2023-10-26T01:33:47.871Z,99111.16
2023-10-26T01:36:14.295Z,99111.94
2023-10-26T01:38:40.719Z,99105.94
2023-10-26T01:41:07.251Z,99105.69
2023-10-26T01:43:33.616Z,99111.16
2023-10-26T01:46:00.111Z,99114.16
2023-10-26T01:48:27.635Z,99119.59
2023-10-26T01:50:54.676Z,99119.72
2023-10-26T01:53:24.593Z,99114.06
2023-10-26T01:55:51.369Z,99115.47
2023-10-26T01:58:17.884Z,99119.38
2023-10-26T02:00:44.534Z,99118.25
2023-10-26T02:03:11.025Z,99115.00
2023-10-26T02:05:37.531Z,99124.81
2023-10-26T02:08:04.147Z,99122.81
2023-10-26T02:10:30.778Z,99123.50
2023-10-26T02:12:57.852Z,99127.53
2023-10-26T02:15:24.527Z,99124.28
2023-10-26T02:17:51.249Z,99127.28
2023-10-26T02:20:17.915Z,99120.69
2023-10-26T02:22:44.346Z,99122.53
2023-10-26T02:25:10.803Z,99120.91
2023-10-26T02:27:37.136Z,99129.13
2023-10-26T02:30:03.891Z,99130.16
2023-10-26T02:32:30.795Z,99129.56
2023-10-26T02:34:57.258Z,99128.50
2023-10-26T02:37:23.674Z,99136.13
2023-10-26T02:39:50.046Z,99138.84
2023-10-26T02:42:16.499Z,99141.56
2023-10-26T02:44:43.177Z,99145.31
2023-10-26T02:47:09.756Z,99148.56
2023-10-26T02:49:36.143Z,99143.13
2023-10-26T02:52:02.558Z,99142.81
2023-10-26T02:54:29.500Z,99135.78
2023-10-26T02:56:56.079Z,99141.47
2023-10-26T02:59:22.560Z,99147.72
2023-10-26T03:01:49.061Z,99150.13
2023-10-26T03:04:15.600Z,99149.59
2023-10-26T03:06:43.130Z,99152.31
2023-10-26T03:09:09.683Z,99158.84
2023-10-26T03:11:37.302Z,99158.84
2023-10-26T03:14:05.444Z,99156.41
2023-10-26T03:16:33.783Z,99152.72
2023-10-26T03:19:00.340Z,99148.25
2023-10-26T03:21:26.862Z,99144.22
2023-10-26T03:23:56.225Z,99140.09
2023-10-26T03:26:24.274Z,99145.94
2023-10-26T03:28:51.721Z,99144.34
2023-10-26T03:31:18.370Z,99154.44
2023-10-26T03:33:44.805Z,99149.28
2023-10-26T03:36:15.834Z,99160.16
2023-10-26T03:38:43.373Z,99156.31
2023-10-26T03:41:09.882Z,99160.16
2023-10-26T03:43:36.915Z,99160.66
2023-10-26T03:46:03.959Z,99152.00
2023-10-26T03:48:30.374Z,99150.72
2023-10-26T03:50:56.766Z,99152.13
2023-10-26T03:53:23.501Z,99152.88
2023-10-26T03:55:50.124Z,99130.63
2023-10-26T03:58:16.855Z,99134.19
2023-10-26T04:00:43.406Z,99143.97
2023-10-26T04:03:09.835Z,99139.78
2023-10-26T04:05:37.104Z,99158.22
2023-10-26T04:08:05.082Z,99159.88
2023-10-26T04:10:32.151Z,99152.84
2023-10-26T04:12:58.602Z,99151.16
2023-10-26T04:15:25.038Z,99155.56
2023-10-26T04:17:51.463Z,99154.25
2023-10-26T04:20:18.094Z,99150.13
2023-10-26T04:22:44.482Z,99152.25
2023-10-26T04:25:10.902Z,99152.56
2023-10-26T04:27:37.396Z,99144.91
2023-10-26T04:30:04.130Z,99141.97
2023-10-26T04:32:30.536Z,99144.47
2023-10-26T04:34:57.047Z,99138.47
2023-10-26T04:37:23.416Z,99143.91
2023-10-26T04:39:50.278Z,99144.69
2023-10-26T04:42:16.747Z,99148.50
2023-10-26T04:44:43.461Z,99145.25
2023-10-26T04:47:11.067Z,99148.44
2023-10-26T04:49:37.647Z,99144.03
2023-10-26T04:52:04.259Z,99134.78
2023-10-26T04:54:30.732Z,99129.94
2023-10-26T04:56:57.271Z,99135.59
2023-10-26T04:59:23.680Z,99135.09
2023-10-26T05:01:50.268Z,99135.81
2023-10-26T05:04:16.786Z,99136.41
2023-10-26T05:06:43.181Z,99141.31
2023-10-26T05:09:09.628Z,99139.13
2023-10-26T05:11:36.061Z,99136.47
2023-10-26T05:14:04.194Z,99136.69
2023-10-26T05:16:30.619Z,99141.91
2023-10-26T05:18:57.166Z,99139.78
2023-10-26T05:21:23.540Z,99139.03
2023-10-26T05:23:49.933Z,99139.97
2023-10-26T05:26:16.330Z,99129.31
2023-10-26T05:28:44.299Z,99135.03
2023-10-26T05:31:10.754Z,99132.47
2023-10-26T05:33:37.183Z,99130.63
2023-10-26T05:36:03.985Z,99137.44
2023-10-26T05:38:30.449Z,99135.03
2023-10-26T05:40:57.388Z,99130.63
2023-10-26T05:43:24.477Z,99134.56
2023-10-26T05:45:51.293Z,99120.75
2023-10-26T05:48:20.013Z,99127.06
2023-10-26T05:50:46.985Z,99132.81
2023-10-26T05:53:13.355Z,99130.69
2023-10-26T05:55:42.641Z,99126.34
2023-10-26T05:58:11.965Z,99134.72
2023-10-26T06:00:39.643Z,99138.84
2023-10-26T06:03:06.291Z,99138.34
2023-10-26T06:05:32.911Z,99127.78
2023-10-26T06:07:59.575Z,99128.66
2023-10-26T06:10:25.999Z,99129.81
2023-10-26T06:12:53.197Z,99136.00
2023-10-26T06:15:19.587Z,99137.06
2023-10-26T06:17:46.103Z,99146.81
2023-10-26T06:20:13.535Z,99147.88
2023-10-26T06:22:40.087Z,99138.63
2023-10-26T06:25:06.800Z,99144.09
2023-10-26T06:27:33.402Z,99137.38
2023-10-26T06:29:59.874Z,99138.09
2023-10-26T06:32:26.314Z,99140.78
2023-10-26T06:34:53.130Z,99143.00
2023-10-26T06:37:19.506Z,99146.75
2023-10-26T06:39:45.919Z,99145.41
2023-10-26T06:42:13.672Z,99146.84
2023-10-26T06:44:41.147Z,99161.59
2023-10-26T06:47:07.710Z,99163.75
2023-10-26T06:49:34.083Z,99173.81
2023-10-26T06:52:00.514Z,99175.38
2023-10-26T06:54:27.074Z,99166.91
2023-10-26T06:56:53.521Z,99163.63
2023-10-26T06:59:19.918Z,99168.00
2023-10-26T07:02:07.774Z,99161.22
2023-10-26T07:04:33.044Z,99159.91
2023-10-26T07:06:59.791Z,99166.66
2023-10-26T07:09:26.239Z,99158.81
2023-10-26T07:11:52.703Z,99166.66
2023-10-26T07:14:19.176Z,99159.34
2023-10-26T07:16:45.519Z,99151.72
2023-10-26T07:19:11.946Z,99148.94
2023-10-26T07:21:38.403Z,99153.84
2023-10-26T07:24:05.273Z,99148.94
2023-10-26T07:26:33.745Z,99148.63
2023-10-26T07:29:00.193Z,99150.72
2023-10-26T07:31:26.657Z,99146.09
2023-10-26T07:33:53.935Z,99140.78
2023-10-26T07:36:20.618Z,99146.09
2023-10-26T07:38:47.211Z,99146.66
2023-10-26T07:42:06.779Z,99137.31
2023-10-26T07:44:19.992Z,99133.44
2023-10-26T07:46:46.519Z,99132.81
2023-10-26T07:49:13.028Z,99128.44
2023-10-26T07:51:39.736Z,99127.81
2023-10-26T07:56:39.316Z,99126.13
2023-10-26T07:59:05.767Z,99130.63
2023-10-26T08:01:32.734Z,99129.22
2023-10-26T08:03:59.263Z,99131.91
2023-10-26T08:06:25.867Z,99132.97
2023-10-26T08:08:55.279Z,99136.72
2023-10-26T08:11:21.769Z,99137.75
2023-10-26T08:13:48.184Z,99129.56
2023-10-26T08:16:43.574Z,99131.56
2023-10-26T08:19:01.042Z,99127.22
2023-10-26T08:21:27.524Z,99129.41
2023-10-26T08:23:53.878Z,99133.41
2023-10-26T08:26:20.327Z,99140.66
2023-10-26T08:28:46.979Z,99134.56
2023-10-26T08:31:13.449Z,99131.56
2023-10-26T08:33:39.909Z,99134.44
2023-10-26T08:36:06.795Z,99140.41
2023-10-26T08:38:33.774Z,99141.44
2023-10-26T08:41:00.576Z,99146.78
2023-10-26T08:43:29.582Z,99144.81
2023-10-26T08:45:59.592Z,99150.47
2023-10-26T08:48:29.526Z,99155.84
2023-10-26T08:50:56.292Z,99162.00
2023-10-26T08:53:22.689Z,99159.78
2023-10-26T08:55:53.870Z,99153.94
2023-10-26T08:58:21.891Z,99155.34
2023-10-26T09:00:48.265Z,99154.94
2023-10-26T09:03:14.789Z,99157.97
2023-10-26T09:05:55.352Z,99159.59
2023-10-26T09:08:24.297Z,99165.75
2023-10-26T09:10:52.310Z,99168.25
2023-10-26T09:13:27.163Z,99175.31
2023-10-26T09:15:58.885Z,99169.28
2023-10-26T09:18:27.270Z,99170.59
2023-10-26T09:21:11.892Z,99176.25
2023-10-26T09:23:41.027Z,99183.81
2023-10-26T09:26:09.012Z,99169.00
2023-10-26T09:28:57.024Z,99180.81
2023-10-26T09:31:24.975Z,99182.09
2023-10-26T09:33:51.842Z,99176.31
2023-10-26T09:36:21.066Z,99174.94
2023-10-26T09:38:49.127Z,99183.81
2023-10-26T09:41:22.692Z,99174.63
2023-10-26T09:43:49.546Z,99176.38
2023-10-26T09:46:16.506Z,99181.59
2023-10-26T09:48:43.254Z,99181.72
2023-10-26T09:51:12.387Z,99173.75
2023-10-26T09:53:42.485Z,99175.06
2023-10-26T09:56:20.140Z,99160.38
2023-10-26T09:58:46.867Z,99164.75
2023-10-26T10:01:39.104Z,99171.16
2023-10-26T10:04:07.302Z,99175.81
2023-10-26T10:06:53.698Z,99172.66
2023-10-26T10:09:25.076Z,99167.66
2023-10-26T10:12:07.357Z,99165.66
2023-10-26T10:14:49.201Z,99160.66
2023-10-26T10:17:20.206Z,99151.19
2023-10-26T10:19:48.517Z,99137.31
2023-10-26T10:22:38.153Z,99147.38
2023-10-26T10:25:05.980Z,99132.50
2023-10-26T10:27:32.745Z,99132.63
2023-10-26T10:30:04.281Z,99125.47
2023-10-26T10:32:48.780Z,99138.47
2023-10-26T10:35:47.626Z,99140.59
2023-10-26T10:38:14.141Z,99144.44
2023-10-26T10:40:41.862Z,99143.94
2023-10-26T10:43:08.473Z,99136.28
2023-10-26T10:45:37.951Z,99141.09
2023-10-26T10:48:06.054Z,99143.75
2023-10-26T10:50:32.799Z,99141.22
2023-10-26T10:52:59.261Z,99141.63
2023-10-26T10:55:27.115Z,99133.97
2023-10-26T10:57:58.507Z,99132.06
2023-10-26T11:00:42.698Z,99113.19
2023-10-26T11:03:09.631Z,99109.34
2023-10-26T11:05:41.055Z,99105.81
2023-10-26T11:08:08.574Z,99101.25
2023-10-26T11:10:35.646Z,99100.06
2023-10-26T11:13:02.746Z,99107.34
2023-10-26T11:15:37.865Z,99094.22
2023-10-26T11:18:06.543Z,99093.72
2023-10-26T11:20:38.383Z,99093.50
2023-10-26T11:23:06.284Z,99092.00
2023-10-26T11:25:32.972Z,99085.03
2023-10-26T11:27:59.749Z,99069.69
2023-10-26T11:30:26.531Z,99064.75
2023-10-26T11:32:53.159Z,99077.78
2023-10-26T11:35:19.685Z,99072.31
2023-10-26T11:37:56.995Z,99072.63
2023-10-26T11:40:33.118Z,99074.44
2023-10-26T11:43:01.987Z,99070.69
2023-10-26T11:45:28.994Z,99068.56
2023-10-26T11:47:56.588Z,99067.56
2023-10-26T11:50:36.061Z,99067.53
2023-10-26T11:53:06.158Z,99085.72
2023-10-26T11:55:34.143Z,99077.84
2023-10-26T11:58:01.731Z,99074.19
2023-10-26T12:00:29.783Z,99069.25
2023-10-26T12:02:57.798Z,99077.81
2023-10-26T12:05:25.257Z,99078.63
2023-10-26T12:07:52.156Z,99086.31
2023-10-26T12:10:20.405Z,99082.69
2023-10-26T12:12:47.727Z,99087.75
2023-10-26T12:15:14.309Z,99086.94
2023-10-26T12:17:40.710Z,99085.09
2023-10-26T12:20:09.195Z,99083.09
2023-10-26T12:22:35.755Z,99091.38
2023-10-26T12:25:07.572Z,99083.00
2023-10-26T12:28:20.132Z,99084.41
2023-10-26T12:30:20.932Z,99077.84
2023-10-26T12:32:47.311Z,99077.25
2023-10-26T12:35:13.738Z,99074.84
2023-10-26T12:37:41.636Z,99058.69
2023-10-26T12:40:09.258Z,99060.28
2023-10-26T12:42:38.254Z,99051.00
2023-10-26T12:45:05.527Z,99056.13
2023-10-26T12:47:31.885Z,99059.78
2023-10-26T12:49:58.263Z,99063.09
2023-10-26T12:52:24.681Z,99047.19
2023-10-26T12:54:51.168Z,99050.78
2023-10-26T12:57:17.680Z,99042.19
2023-10-26T12:59:44.182Z,99037.38
2023-10-26T13:02:10.551Z,99032.56
2023-10-26T13:04:37.780Z,99027.94
2023-10-26T13:07:04.842Z,99027.25
2023-10-26T13:09:31.308Z,99026.63
2023-10-26T13:11:57.781Z,99017.84
2023-10-26T13:14:24.198Z,99007.13
2023-10-26T13:16:57.659Z,98998.88
2023-10-26T13:19:24.995Z,99004.16
2023-10-26T13:21:51.594Z,99004.25
2023-10-26T13:24:18.154Z,98989.00
2023-10-26T13:26:44.500Z,98985.69
2023-10-26T13:29:11.006Z,98986.97
2023-10-26T13:31:37.589Z,98996.53
2023-10-26T13:34:04.215Z,98994.50
2023-10-26T13:36:30.616Z,99006.50
2023-10-26T13:38:57.565Z,99005.41
2023-10-26T13:41:24.606Z,99007.97
2023-10-26T13:43:52.039Z,99012.94
2023-10-26T13:46:18.423Z,99010.97
2023-10-26T13:48:44.963Z,99011.94
2023-10-26T13:51:18.084Z,99019.84
2023-10-26T13:53:45.060Z,99013.59
2023-10-26T13:56:11.590Z,99015.19
2023-10-26T13:58:38.064Z,99014.38
2023-10-26T14:01:14.946Z,99002.88
2023-10-26T14:03:42.107Z,99002.66
2023-10-26T14:06:08.876Z,98990.91
2023-10-26T14:08:35.578Z,98995.13
2023-10-26T14:11:02.084Z,98999.59
2023-10-26T14:13:29.464Z,99006.44
2023-10-26T14:15:56.660Z,99003.84
2023-10-26T14:18:23.316Z,98991.13
2023-10-26T14:20:49.762Z,98988.28
2023-10-26T14:23:16.099Z,98983.63
2023-10-26T14:25:42.878Z,98984.47
2023-10-26T14:28:09.307Z,98984.28
2023-10-26T14:30:35.787Z,98986.06
2023-10-26T14:33:02.391Z,98982.84
2023-10-26T14:35:29.808Z,98981.25
2023-10-26T14:37:59.653Z,98977.19
2023-10-26T14:40:26.873Z,98980.47
2023-10-26T14:42:53.662Z,98982.69
2023-10-26T14:45:20.203Z,98985.78
2023-10-26T14:47:46.733Z,98989.44
2023-10-26T14:50:13.262Z,98981.34
2023-10-26T14:52:39.814Z,98986.22
2023-10-26T14:55:06.765Z,98990.06
2023-10-26T14:57:33.333Z,98991.88
2023-10-26T14:59:59.726Z,98990.88
2023-10-26T15:02:26.184Z,98988.25
2023-10-26T15:04:53.925Z,98988.69
2023-10-26T15:07:20.869Z,98989.47
2023-10-26T15:10:23.410Z,98977.59
2023-10-26T15:12:33.653Z,98980.59
2023-10-26T15:15:00.018Z,98968.31
2023-10-26T15:17:26.449Z,98971.16
2023-10-26T15:19:52.900Z,98974.97
2023-10-26T15:22:19.478Z,98975.69
2023-10-26T15:24:46.479Z,98978.41
2023-10-26T15:27:13.504Z,98984.16
2023-10-26T15:29:42.087Z,98977.00
2023-10-26T15:32:08.674Z,98966.22
2023-10-26T15:34:35.428Z,98970.03
2023-10-26T15:37:02.232Z,98970.03
2023-10-26T15:39:29.014Z,98962.69
2023-10-26T15:41:55.534Z,98966.09
2023-10-26T15:44:24.971Z,98958.63
2023-10-26T15:46:51.333Z,98958.63
2023-10-26T15:49:33.587Z,98951.78
2023-10-26T15:52:02.865Z,98954.81
2023-10-26T15:54:29.340Z,98953.31
2023-10-26T15:56:55.736Z,98953.09
2023-10-26T15:59:24.610Z,98955.53
2023-10-26T16:01:51.191Z,98948.75
2023-10-26T16:04:17.798Z,98945.16
2023-10-26T16:06:46.679Z,98939.81
2023-10-26T16:09:14.008Z,98938.72
2023-10-26T16:11:40.557Z,98948.28
2023-10-26T16:14:07.164Z,98952.63
2023-10-26T16:16:34.011Z,98950.00
2023-10-26T16:19:00.592Z,98954.03
2023-10-26T16:21:27.179Z,98957.88
2023-10-26T16:23:53.521Z,98963.31
2023-10-26T16:26:19.993Z,98963.81
2023-10-26T16:28:49.050Z,98972.47
2023-10-26T16:31:16.848Z,98965.44
2023-10-26T16:33:43.392Z,98960.28
2023-10-26T16:36:09.954Z,98964.31
2023-10-26T16:38:36.493Z,98970.06
2023-10-26T16:41:02.941Z,98985.06
2023-10-26T16:43:29.420Z,98988.00
2023-10-26T16:46:02.563Z,98992.94
2023-10-26T16:48:29.471Z,98986.88
2023-10-26T16:50:57.122Z,98983.06
2023-10-26T16:53:31.952Z,98984.28
2023-10-26T16:56:00.332Z,98982.56
2023-10-26T16:58:27.074Z,98977.84
2023-10-26T17:00:54.014Z,98971.75
2023-10-26T17:03:21.037Z,98973.69
2023-10-26T17:05:47.534Z,98973.47
2023-10-26T17:08:13.983Z,98969.03
2023-10-26T17:10:41.681Z,98964.59
2023-10-26T17:13:10.249Z,98961.88
2023-10-26T17:15:36.687Z,98953.41
2023-10-26T17:18:03.965Z,98954.84
2023-10-26T17:20:30.448Z,98949.41
2023-10-26T17:22:56.783Z,98941.31
2023-10-26T17:25:23.174Z,98947.97
2023-10-26T17:27:50.316Z,98947.78
2023-10-26T17:30:16.843Z,98942.53
2023-10-26T17:32:43.328Z,98942.75
2023-10-26T17:35:09.873Z,98942.53
2023-10-26T17:37:36.261Z,98949.78
2023-10-26T17:40:02.745Z,98961.09
2023-10-26T17:42:29.132Z,98956.34
2023-10-26T17:44:55.714Z,98956.44
2023-10-26T17:47:23.776Z,98960.06
2023-10-26T17:49:50.182Z,98953.22
2023-10-26T17:52:16.827Z,98957.88
2023-10-26T17:54:43.282Z,98958.28
2023-10-26T17:57:09.724Z,98956.66
2023-10-26T17:59:36.644Z,98951.41
2023-10-26T18:02:07.116Z,98957.94
2023-10-26T18:04:34.018Z,98955.84
2023-10-26T18:07:00.906Z,98951.63
2023-10-26T18:09:28.748Z,98954.84
2023-10-26T18:11:55.093Z,98942.94
2023-10-26T18:14:23.315Z,98949.19
2023-10-26T18:16:55.435Z,98949.41
2023-10-26T18:19:22.489Z,98952.72
2023-10-26T18:21:49.022Z,98955.94
2023-10-26T18:24:16.444Z,98950.09
2023-10-26T18:26:42.792Z,98947.38
2023-10-26T18:29:09.336Z,98953.84
2023-10-26T18:31:35.730Z,98952.84
2023-10-26T18:34:02.297Z,98956.44
2023-10-26T18:36:28.754Z,98946.69
2023-10-26T18:38:55.230Z,98947.56
2023-10-26T18:41:24.797Z,98941.53
2023-10-26T18:43:52.547Z,98937.09
2023-10-26T18:46:19.148Z,98928.63
2023-10-26T18:48:45.667Z,98922.91
2023-10-26T18:51:12.465Z,98918.03
2023-10-26T18:53:40.354Z,98915.31
2023-10-26T18:56:14.706Z,98920.16
2023-10-26T18:58:41.080Z,98923.78
2023-10-26T19:01:07.721Z,98920.75
2023-10-26T19:03:35.958Z,98922.78
2023-10-26T19:06:05.074Z,98935.28
2023-10-26T19:08:31.496Z,98918.97
2023-10-26T19:10:57.990Z,98917.13
2023-10-26T19:13:24.716Z,98918.25
2023-10-26T19:15:51.281Z,98924.19
2023-10-26T19:18:17.821Z,98928.00
2023-10-26T19:20:44.343Z,98938.91
2023-10-26T19:23:11.450Z,98942.25
2023-10-26T19:25:38.033Z,98937.81
2023-10-26T19:28:04.940Z,98927.63
2023-10-26T19:30:31.725Z,98934.78
2023-10-26T19:32:58.459Z,98934.78
2023-10-26T19:35:28.890Z,98929.44
2023-10-26T19:37:57.362Z,98932.16
2023-10-26T19:40:24.616Z,98936.78
2023-10-26T19:42:51.454Z,98942.03
2023-10-26T19:45:18.376Z,98932.34
2023-10-26T19:47:45.230Z,98940.50
2023-10-26T19:50:12.162Z,98939.50
2023-10-26T19:52:38.834Z,98939.50
2023-10-26T19:55:07.796Z,98937.47
2023-10-26T19:57:35.537Z,98936.13
2023-10-26T20:00:02.774Z,98941.91
2023-10-26T20:02:29.160Z,98939.88
2023-10-26T20:04:55.633Z,98939.22
2023-10-26T20:07:22.093Z,98950.06
2023-10-26T20:09:48.673Z,98944.28
2023-10-26T20:12:15.084Z,98945.63
2023-10-26T20:14:42.634Z,98939.06
2023-10-26T20:17:09.926Z,98929.16
2023-10-26T20:19:36.426Z,98932.69
2023-10-26T20:22:02.871Z,98934.25
2023-10-26T20:24:29.405Z,98931.13
2023-10-26T20:26:55.761Z,98929.53
2023-10-26T20:29:22.123Z,98933.03
2023-10-26T20:31:48.674Z,98929.72
2023-10-26T20:34:18.370Z,98926.09
2023-10-26T20:36:48.230Z,98918.75
2023-10-26T20:39:14.839Z,98919.53
2023-10-26T20:41:44.510Z,98917.63
2023-10-26T20:44:11.962Z,98918.16
2023-10-26T20:46:38.726Z,98924.28
2023-10-26T20:49:06.097Z,98914.09
2023-10-26T20:51:34.362Z,98914.91
2023-10-26T20:54:01.689Z,98917.03
2023-10-26T20:56:28.154Z,98913.22
2023-10-26T20:58:54.638Z,98907.47
2023-10-26T21:01:21.149Z,98906.44
2023-10-26T21:03:47.715Z,98909.47
2023-10-26T21:06:14.098Z,98912.66
2023-10-26T21:08:40.645Z,98910.09
2023-10-26T21:11:14.656Z,98909.66
2023-10-26T21:13:41.650Z,98903.63
2023-10-26T21:16:08.235Z,98898.00
2023-10-26T21:18:34.821Z,98896.56
2023-10-26T21:21:07.937Z,98899.19
2023-10-26T21:23:35.941Z,98887.69
2023-10-26T21:26:07.016Z,98883.19
2023-10-26T21:28:34.005Z,98890.75
2023-10-26T21:31:00.600Z,98886.41
2023-10-26T21:33:27.149Z,98879.66
2023-10-26T21:35:53.613Z,98870.09
2023-10-26T21:38:20.105Z,98869.78
2023-10-26T21:40:47.600Z,98872.59
2023-10-26T21:43:14.479Z,98868.78
2023-10-26T21:45:44.922Z,98865.13
2023-10-26T21:48:12.426Z,98867.88
2023-10-26T21:50:38.913Z,98872.72
2023-10-26T21:53:05.395Z,98871.72
2023-10-26T21:55:32.665Z,98868.16
2023-10-26T21:57:59.144Z,98866.75
2023-10-26T22:00:26.540Z,98863.75
2023-10-26T22:02:56.662Z,98866.16
2023-10-26T22:05:23.793Z,98869.88
2023-10-26T22:07:50.919Z,98869.78
2023-10-26T22:10:18.377Z,98863.34
2023-10-26T22:12:44.890Z,98858.09
2023-10-26T22:15:13.707Z,98852.03
2023-10-26T22:17:41.761Z,98863.13
2023-10-26T22:20:12.237Z,98853.66
2023-10-26T22:22:39.122Z,98847.22
2023-10-26T22:25:05.979Z,98839.34
2023-10-26T22:27:32.640Z,98845.59
2023-10-26T22:29:59.521Z,98839.34
2023-10-26T22:32:26.112Z,98838.06
2023-10-26T22:34:52.946Z,98838.56
2023-10-26T22:37:20.013Z,98836.72
2023-10-26T22:39:46.709Z,98831.91
2023-10-26T22:42:13.664Z,98833.28
2023-10-26T22:44:40.106Z,98832.50
2023-10-26T22:47:07.939Z,98831.41
2023-10-26T22:49:34.862Z,98832.63
2023-10-26T22:52:01.327Z,98826.69
2023-10-26T22:54:27.755Z,98822.84
2023-10-26T22:56:54.226Z,98815.28
2023-10-26T22:59:21.604Z,98813.06
2023-10-26T23:01:48.071Z,98813.16
2023-10-26T23:04:15.315Z,98809.53
2023-10-26T23:06:41.906Z,98808.53
2023-10-26T23:09:08.281Z,98804.59
2023-10-26T23:11:34.693Z,98802.72
2023-10-26T23:14:01.144Z,98805.72
2023-10-26T23:16:27.699Z,98803.50
2023-10-26T23:18:54.247Z,98811.16
2023-10-26T23:21:20.748Z,98797.06
2023-10-26T23:23:47.194Z,98796.28
2023-10-26T23:26:14.102Z,98795.16
2023-10-26T23:28:40.566Z,98797.94
2023-10-26T23:31:11.629Z,98802.00
2023-10-26T23:33:38.766Z,98808.25
2023-10-26T23:36:13.048Z,98797.66
2023-10-26T23:38:39.968Z,98800.38
2023-10-26T23:41:07.021Z,98799.06
2023-10-26T23:43:33.535Z,98801.56
2023-10-26T23:45:59.974Z,98799.13
2023-10-26T23:48:26.461Z,98792.91
2023-10-26T23:50:53.373Z,98798.44
2023-10-26T23:53:20.377Z,98792.41
2023-10-26T23:55:47.974Z,98792.50
2023-10-26T23:58:14.649Z,98801.06
